sensor_id;sensor_type;location;lat;lon;timestamp;temperature;humidity
60727;DHT22;46577;49.004;12.120;2023-04-01T00:00:50;8.90;99.90
60727;DHT22;46577;49.004;12.120;2023-04-01T00:03:16;8.80;99.90
60727;DHT22;46577;49.004;12.120;2023-04-01T00:05:42;8.80;99.90
60727;DHT22;46577;49.004;12.120;2023-04-01T00:08:08;8.90;99.90
60727;DHT22;46577;49.004;12.120;2023-04-01T00:10:33;8.80;99.90
60727;DHT22;46577;49.004;12.120;2023-04-01T00:12:59;8.80;99.90
60727;DHT22;46577;49.004;12.120;2023-04-01T00:15:24;8.90;99.90
60727;DHT22;46577;49.004;12.120;2023-04-01T00:17:50;9.00;99.90
60727;DHT22;46577;49.004;12.120;2023-04-01T00:20:16;9.00;99.90
60727;DHT22;46577;49.004;12.120;2023-04-01T00:22:41;9.00;99.90
60727;DHT22;46577;49.004;12.120;2023-04-01T00:25:07;9.00;99.90
60727;DHT22;46577;49.004;12.120;2023-04-01T00:27:33;8.90;99.90
60727;DHT22;46577;49.004;12.120;2023-04-01T00:29:58;9.00;99.90
60727;DHT22;46577;49.004;12.120;2023-04-01T00:32:24;9.00;99.90
60727;DHT22;46577;49.004;12.120;2023-04-01T00:34:52;8.90;99.90
60727;DHT22;46577;49.004;12.120;2023-04-01T00:37:19;8.90;99.90
60727;DHT22;46577;49.004;12.120;2023-04-01T00:39:46;9.00;99.90
60727;DHT22;46577;49.004;12.120;2023-04-01T00:42:12;9.10;99.90
60727;DHT22;46577;49.004;12.120;2023-04-01T00:44:39;9.10;99.90
60727;DHT22;46577;49.004;12.120;2023-04-01T00:47:05;9.10;99.90
60727;DHT22;46577;49.004;12.120;2023-04-01T00:49:35;9.20;99.90
60727;DHT22;46577;49.004;12.120;2023-04-01T00:52:04;9.00;99.90
60727;DHT22;46577;49.004;12.120;2023-04-01T00:54:31;9.00;99.90
60727;DHT22;46577;49.004;12.120;2023-04-01T00:57:13;8.80;99.90
60727;DHT22;46577;49.004;12.120;2023-04-01T00:59:43;9.00;99.90
60727;DHT22;46577;49.004;12.120;2023-04-01T01:02:11;8.90;99.90
60727;DHT22;46577;49.004;12.120;2023-04-01T01:04:37;8.90;99.90
60727;DHT22;46577;49.004;12.120;2023-04-01T01:10:00;9.00;99.90
60727;DHT22;46577;49.004;12.120;2023-04-01T01:15:21;9.00;99.90
60727;DHT22;46577;49.004;12.120;2023-04-01T01:23:46;8.90;99.90
60727;DHT22;46577;49.004;12.120;2023-04-01T01:37:41;8.90;99.90
60727;DHT22;46577;49.004;12.120;2023-04-01T01:40:10;8.90;99.90
60727;DHT22;46577;49.004;12.120;2023-04-01T01:42:45;9.00;99.90
60727;DHT22;46577;49.004;12.120;2023-04-01T01:45:13;8.80;99.90
60727;DHT22;46577;49.004;12.120;2023-04-01T01:47:41;8.80;99.90
60727;DHT22;46577;49.004;12.120;2023-04-01T01:50:08;8.90;99.90
60727;DHT22;46577;49.004;12.120;2023-04-01T01:52:34;8.90;99.90
60727;DHT22;46577;49.004;12.120;2023-04-01T01:55:00;8.90;99.90
60727;DHT22;46577;49.004;12.120;2023-04-01T01:57:34;8.90;99.90
60727;DHT22;46577;49.004;12.120;2023-04-01T02:00:07;9.00;99.90
60727;DHT22;46577;49.004;12.120;2023-04-01T02:02:40;9.00;99.90
60727;DHT22;46577;49.004;12.120;2023-04-01T02:05:08;9.00;99.90
60727;DHT22;46577;49.004;12.120;2023-04-01T02:07:35;9.00;99.90
60727;DHT22;46577;49.004;12.120;2023-04-01T02:10:03;8.90;99.90
60727;DHT22;46577;49.004;12.120;2023-04-01T02:12:30;8.90;99.90
60727;DHT22;46577;49.004;12.120;2023-04-01T02:15:10;8.90;99.90
60727;DHT22;46577;49.004;12.120;2023-04-01T02:17:42;9.00;99.90
60727;DHT22;46577;49.004;12.120;2023-04-01T02:22:40;8.90;99.90
60727;DHT22;46577;49.004;12.120;2023-04-01T02:25:16;8.90;99.90
60727;DHT22;46577;49.004;12.120;2023-04-01T02:27:44;8.90;99.90
60727;DHT22;46577;49.004;12.120;2023-04-01T02:30:14;8.80;99.90
60727;DHT22;46577;49.004;12.120;2023-04-01T02:32:40;8.80;99.90
60727;DHT22;46577;49.004;12.120;2023-04-01T02:35:09;8.80;99.90
60727;DHT22;46577;49.004;12.120;2023-04-01T02:37:36;8.80;99.90
60727;DHT22;46577;49.004;12.120;2023-04-01T02:40:04;8.70;99.90
60727;DHT22;46577;49.004;12.120;2023-04-01T02:42:32;8.80;99.90
60727;DHT22;46577;49.004;12.120;2023-04-01T02:44:57;8.70;99.90
60727;DHT22;46577;49.004;12.120;2023-04-01T02:47:23;8.70;99.90
60727;DHT22;46577;49.004;12.120;2023-04-01T02:49:48;8.70;99.90
60727;DHT22;46577;49.004;12.120;2023-04-01T02:52:14;8.70;99.90
60727;DHT22;46577;49.004;12.120;2023-04-01T02:54:39;8.70;99.90
60727;DHT22;46577;49.004;12.120;2023-04-01T02:57:05;8.70;99.90
60727;DHT22;46577;49.004;12.120;2023-04-01T02:59:31;8.80;99.90
60727;DHT22;46577;49.004;12.120;2023-04-01T03:01:57;8.80;99.90
60727;DHT22;46577;49.004;12.120;2023-04-01T03:04:22;8.90;99.90
60727;DHT22;46577;49.004;12.120;2023-04-01T03:06:48;8.90;99.90
60727;DHT22;46577;49.004;12.120;2023-04-01T03:09:14;8.90;99.90
60727;DHT22;46577;49.004;12.120;2023-04-01T03:11:39;8.90;99.90
60727;DHT22;46577;49.004;12.120;2023-04-01T03:14:06;8.80;99.90
60727;DHT22;46577;49.004;12.120;2023-04-01T03:16:32;8.80;99.90
60727;DHT22;46577;49.004;12.120;2023-04-01T03:18:58;8.80;99.90
60727;DHT22;46577;49.004;12.120;2023-04-01T03:21:25;8.80;99.90
60727;DHT22;46577;49.004;12.120;2023-04-01T03:23:51;8.70;99.90
60727;DHT22;46577;49.004;12.120;2023-04-01T03:26:17;8.80;99.90
60727;DHT22;46577;49.004;12.120;2023-04-01T03:28:43;8.80;99.90
60727;DHT22;46577;49.004;12.120;2023-04-01T03:31:09;8.90;99.90
60727;DHT22;46577;49.004;12.120;2023-04-01T03:33:35;8.70;99.90
60727;DHT22;46577;49.004;12.120;2023-04-01T03:36:00;8.70;99.90
60727;DHT22;46577;49.004;12.120;2023-04-01T03:38:26;8.60;99.90
60727;DHT22;46577;49.004;12.120;2023-04-01T03:40:51;8.60;99.90
60727;DHT22;46577;49.004;12.120;2023-04-01T03:43:17;8.50;99.90
60727;DHT22;46577;49.004;12.120;2023-04-01T03:45:47;8.50;99.90
60727;DHT22;46577;49.004;12.120;2023-04-01T03:48:14;8.50;99.90
60727;DHT22;46577;49.004;12.120;2023-04-01T03:50:40;8.50;99.90
60727;DHT22;46577;49.004;12.120;2023-04-01T03:53:06;8.50;99.90
60727;DHT22;46577;49.004;12.120;2023-04-01T03:55:31;8.60;99.90
60727;DHT22;46577;49.004;12.120;2023-04-01T03:57:57;8.60;99.90
60727;DHT22;46577;49.004;12.120;2023-04-01T04:00:22;8.60;99.90
60727;DHT22;46577;49.004;12.120;2023-04-01T04:02:48;8.60;99.90
60727;DHT22;46577;49.004;12.120;2023-04-01T04:05:14;8.60;99.90
60727;DHT22;46577;49.004;12.120;2023-04-01T04:07:39;8.60;99.90
60727;DHT22;46577;49.004;12.120;2023-04-01T04:10:06;8.60;99.90
60727;DHT22;46577;49.004;12.120;2023-04-01T04:12:32;8.50;99.90
60727;DHT22;46577;49.004;12.120;2023-04-01T04:14:57;8.50;99.90
60727;DHT22;46577;49.004;12.120;2023-04-01T04:17:23;8.50;99.90
60727;DHT22;46577;49.004;12.120;2023-04-01T04:19:49;8.40;99.90
60727;DHT22;46577;49.004;12.120;2023-04-01T04:22:14;8.40;99.90
60727;DHT22;46577;49.004;12.120;2023-04-01T04:24:40;8.30;99.90
60727;DHT22;46577;49.004;12.120;2023-04-01T04:27:05;8.30;99.90
60727;DHT22;46577;49.004;12.120;2023-04-01T04:29:31;8.40;99.90
60727;DHT22;46577;49.004;12.120;2023-04-01T04:31:56;8.40;99.90
60727;DHT22;46577;49.004;12.120;2023-04-01T04:34:22;8.40;99.90
60727;DHT22;46577;49.004;12.120;2023-04-01T04:36:48;8.40;99.90
60727;DHT22;46577;49.004;12.120;2023-04-01T04:39:14;8.40;99.90
60727;DHT22;46577;49.004;12.120;2023-04-01T04:41:40;8.40;99.90
60727;DHT22;46577;49.004;12.120;2023-04-01T04:44:06;8.50;99.90
60727;DHT22;46577;49.004;12.120;2023-04-01T04:46:32;8.50;99.90
60727;DHT22;46577;49.004;12.120;2023-04-01T04:48:58;8.50;99.90
60727;DHT22;46577;49.004;12.120;2023-04-01T04:51:24;8.40;99.90
60727;DHT22;46577;49.004;12.120;2023-04-01T04:53:49;8.50;99.90
60727;DHT22;46577;49.004;12.120;2023-04-01T04:56:19;8.50;99.90
60727;DHT22;46577;49.004;12.120;2023-04-01T04:58:46;8.50;99.90
60727;DHT22;46577;49.004;12.120;2023-04-01T05:01:16;8.50;99.90
60727;DHT22;46577;49.004;12.120;2023-04-01T05:03:42;8.40;99.90
60727;DHT22;46577;49.004;12.120;2023-04-01T05:06:09;8.30;99.90
60727;DHT22;46577;49.004;12.120;2023-04-01T05:08:37;8.30;99.90
60727;DHT22;46577;49.004;12.120;2023-04-01T05:11:07;8.20;99.90
60727;DHT22;46577;49.004;12.120;2023-04-01T05:13:35;8.20;99.90
60727;DHT22;46577;49.004;12.120;2023-04-01T05:16:01;8.10;99.90
60727;DHT22;46577;49.004;12.120;2023-04-01T05:18:27;9.20;99.90
60727;DHT22;46577;49.004;12.120;2023-04-01T05:20:54;8.10;99.90
60727;DHT22;46577;49.004;12.120;2023-04-01T05:23:21;8.20;99.90
60727;DHT22;46577;49.004;12.120;2023-04-01T05:25:50;8.10;99.90
60727;DHT22;46577;49.004;12.120;2023-04-01T05:28:19;8.10;99.90
60727;DHT22;46577;49.004;12.120;2023-04-01T05:30:45;8.10;99.90
60727;DHT22;46577;49.004;12.120;2023-04-01T05:33:12;8.20;99.90
60727;DHT22;46577;49.004;12.120;2023-04-01T05:35:39;8.40;99.90
60727;DHT22;46577;49.004;12.120;2023-04-01T05:38:05;8.30;99.90
60727;DHT22;46577;49.004;12.120;2023-04-01T05:40:31;8.30;99.90
60727;DHT22;46577;49.004;12.120;2023-04-01T05:42:58;8.40;99.90
60727;DHT22;46577;49.004;12.120;2023-04-01T05:45:24;8.50;99.90
60727;DHT22;46577;49.004;12.120;2023-04-01T05:47:49;8.60;99.90
60727;DHT22;46577;49.004;12.120;2023-04-01T05:50:15;8.80;99.90
60727;DHT22;46577;49.004;12.120;2023-04-01T05:52:41;8.60;99.90
60727;DHT22;46577;49.004;12.120;2023-04-01T05:55:07;8.80;99.90
60727;DHT22;46577;49.004;12.120;2023-04-01T05:57:33;8.90;99.90
60727;DHT22;46577;49.004;12.120;2023-04-01T05:59:59;8.90;99.90
60727;DHT22;46577;49.004;12.120;2023-04-01T06:02:24;9.00;99.90
60727;DHT22;46577;49.004;12.120;2023-04-01T06:05:03;9.10;99.90
60727;DHT22;46577;49.004;12.120;2023-04-01T06:07:35;9.10;99.90
60727;DHT22;46577;49.004;12.120;2023-04-01T06:10:01;9.10;99.90
60727;DHT22;46577;49.004;12.120;2023-04-01T06:15:39;9.20;99.90
60727;DHT22;46577;49.004;12.120;2023-04-01T06:19:15;9.30;99.90
60727;DHT22;46577;49.004;12.120;2023-04-01T06:29:54;9.60;99.90
60727;DHT22;46577;49.004;12.120;2023-04-01T06:32:42;9.60;99.90
60727;DHT22;46577;49.004;12.120;2023-04-01T06:35:57;9.70;99.90
60727;DHT22;46577;49.004;12.120;2023-04-01T06:46:44;10.70;99.90
60727;DHT22;46577;49.004;12.120;2023-04-01T06:49:33;11.40;99.90
60727;DHT22;46577;49.004;12.120;2023-04-01T06:57:35;13.00;99.90
60727;DHT22;46577;49.004;12.120;2023-04-01T07:00:22;12.90;99.90
60727;DHT22;46577;49.004;12.120;2023-04-01T07:03:16;13.70;99.90
60727;DHT22;46577;49.004;12.120;2023-04-01T07:05:40;14.60;97.80
60727;DHT22;46577;49.004;12.120;2023-04-01T07:08:10;15.10;96.60
60727;DHT22;46577;49.004;12.120;2023-04-01T07:10:45;15.00;96.30
60727;DHT22;46577;49.004;12.120;2023-04-01T07:13:25;15.00;95.40
60727;DHT22;46577;49.004;12.120;2023-04-01T07:16:15;16.40;94.20
60727;DHT22;46577;49.004;12.120;2023-04-01T07:18:52;18.30;89.00
60727;DHT22;46577;49.004;12.120;2023-04-01T07:21:34;18.60;81.40
60727;DHT22;46577;49.004;12.120;2023-04-01T07:24:15;16.70;85.60
60727;DHT22;46577;49.004;12.120;2023-04-01T07:26:42;15.80;92.40
60727;DHT22;46577;49.004;12.120;2023-04-01T07:29:13;16.10;90.80
60727;DHT22;46577;49.004;12.120;2023-04-01T07:31:54;15.60;90.40
60727;DHT22;46577;49.004;12.120;2023-04-01T07:45:36;16.00;88.60
60727;DHT22;46577;49.004;12.120;2023-04-01T07:50:41;15.00;90.90
60727;DHT22;46577;49.004;12.120;2023-04-01T07:56:06;15.00;90.50
60727;DHT22;46577;49.004;12.120;2023-04-01T08:04:38;14.50;91.50
60727;DHT22;46577;49.004;12.120;2023-04-01T08:06:49;14.30;91.90
60727;DHT22;46577;49.004;12.120;2023-04-01T08:09:24;14.10;93.50
60727;DHT22;46577;49.004;12.120;2023-04-01T08:14:56;15.00;91.40
60727;DHT22;46577;49.004;12.120;2023-04-01T08:20:28;15.40;90.30
60727;DHT22;46577;49.004;12.120;2023-04-01T08:23:28;16.00;89.10
60727;DHT22;46577;49.004;12.120;2023-04-01T08:26:10;17.30;83.80
60727;DHT22;46577;49.004;12.120;2023-04-01T08:33:40;19.70;72.60
60727;DHT22;46577;49.004;12.120;2023-04-01T08:36:15;20.60;66.10
60727;DHT22;46577;49.004;12.120;2023-04-01T08:49:56;22.90;50.00
60727;DHT22;46577;49.004;12.120;2023-04-01T08:52:45;23.30;48.40
60727;DHT22;46577;49.004;12.120;2023-04-01T09:00:20;23.50;47.10
60727;DHT22;46577;49.004;12.120;2023-04-01T09:02:56;21.90;47.30
60727;DHT22;46577;49.004;12.120;2023-04-01T09:11:21;17.20;59.30
60727;DHT22;46577;49.004;12.120;2023-04-01T09:13:56;16.20;60.60
60727;DHT22;46577;49.004;12.120;2023-04-01T09:19:15;15.00;67.20
60727;DHT22;46577;49.004;12.120;2023-04-01T09:33:04;14.30;76.60
60727;DHT22;46577;49.004;12.120;2023-04-01T09:41:02;14.70;77.00
60727;DHT22;46577;49.004;12.120;2023-04-01T09:44:00;14.80;76.90
60727;DHT22;46577;49.004;12.120;2023-04-01T09:46:50;15.10;75.40
60727;DHT22;46577;49.004;12.120;2023-04-01T09:49:56;15.50;75.80
60727;DHT22;46577;49.004;12.120;2023-04-01T09:55:55;15.70;75.10
60727;DHT22;46577;49.004;12.120;2023-04-01T10:06:54;16.90;70.70
60727;DHT22;46577;49.004;12.120;2023-04-01T10:12:19;16.50;70.90
60727;DHT22;46577;49.004;12.120;2023-04-01T10:22:57;15.30;74.40
60727;DHT22;46577;49.004;12.120;2023-04-01T10:28:33;14.60;78.40
60727;DHT22;46577;49.004;12.120;2023-04-01T10:36:54;14.40;79.10
60727;DHT22;46577;49.004;12.120;2023-04-01T10:56:59;14.80;80.60
60727;DHT22;46577;49.004;12.120;2023-04-01T11:02:38;14.70;80.50
60727;DHT22;46577;49.004;12.120;2023-04-01T11:16:56;14.70;79.70
60727;DHT22;46577;49.004;12.120;2023-04-01T11:31:04;14.30;80.50
60727;DHT22;46577;49.004;12.120;2023-04-01T11:36:48;13.60;84.50
60727;DHT22;46577;49.004;12.120;2023-04-01T11:41:59;13.80;91.30
60727;DHT22;46577;49.004;12.120;2023-04-01T11:44:29;14.00;91.70
60727;DHT22;46577;49.004;12.120;2023-04-01T12:01:44;13.70;97.00
60727;DHT22;46577;49.004;12.120;2023-04-01T12:07:28;13.50;98.50
60727;DHT22;46577;49.004;12.120;2023-04-01T12:10:20;13.40;99.00
60727;DHT22;46577;49.004;12.120;2023-04-01T12:15:30;12.90;99.90
60727;DHT22;46577;49.004;12.120;2023-04-01T12:20:54;12.30;99.90
60727;DHT22;46577;49.004;12.120;2023-04-01T12:23:52;12.10;99.90
60727;DHT22;46577;49.004;12.120;2023-04-01T12:32:13;11.90;99.90
60727;DHT22;46577;49.004;12.120;2023-04-01T12:34:55;11.90;99.90
60727;DHT22;46577;49.004;12.120;2023-04-01T12:37:55;11.80;99.90
60727;DHT22;46577;49.004;12.120;2023-04-01T12:41:29;11.70;99.90
60727;DHT22;46577;49.004;12.120;2023-04-01T12:49:21;11.40;99.90
60727;DHT22;46577;49.004;12.120;2023-04-01T12:57:44;11.90;99.90
60727;DHT22;46577;49.004;12.120;2023-04-01T13:00:46;11.80;99.90
60727;DHT22;46577;49.004;12.120;2023-04-01T13:11:47;10.80;99.90
60727;DHT22;46577;49.004;12.120;2023-04-01T13:17:11;10.70;99.90
60727;DHT22;46577;49.004;12.120;2023-04-01T13:28:30;11.40;99.90
60727;DHT22;46577;49.004;12.120;2023-04-01T13:31:25;11.60;99.90
60727;DHT22;46577;49.004;12.120;2023-04-01T13:34:20;11.90;99.90
60727;DHT22;46577;49.004;12.120;2023-04-01T13:45:08;11.70;99.90
60727;DHT22;46577;49.004;12.120;2023-04-01T13:51:02;11.60;99.90
60727;DHT22;46577;49.004;12.120;2023-04-01T13:56:34;11.80;99.90
60727;DHT22;46577;49.004;12.120;2023-04-01T14:12:56;11.90;99.90
60727;DHT22;46577;49.004;12.120;2023-04-01T14:23:36;11.60;99.90
60727;DHT22;46577;49.004;12.120;2023-04-01T14:36:59;10.80;99.90
60727;DHT22;46577;49.004;12.120;2023-04-01T14:45:19;11.30;99.90
60727;DHT22;46577;49.004;12.120;2023-04-01T14:47:56;11.60;99.90
60727;DHT22;46577;49.004;12.120;2023-04-01T14:50:27;11.70;99.90
60727;DHT22;46577;49.004;12.120;2023-04-01T14:58:13;11.70;99.90
60727;DHT22;46577;49.004;12.120;2023-04-01T15:03:39;11.70;99.90
60727;DHT22;46577;49.004;12.120;2023-04-01T15:12:22;11.40;99.90
60727;DHT22;46577;49.004;12.120;2023-04-01T15:15:02;11.40;99.90
60727;DHT22;46577;49.004;12.120;2023-04-01T15:17:39;11.30;99.90
60727;DHT22;46577;49.004;12.120;2023-04-01T15:20:35;11.10;99.90
60727;DHT22;46577;49.004;12.120;2023-04-01T15:28:33;11.50;99.90
60727;DHT22;46577;49.004;12.120;2023-04-01T15:37:01;11.40;99.90
60727;DHT22;46577;49.004;12.120;2023-04-01T15:43:24;11.10;99.90
60727;DHT22;46577;49.004;12.120;2023-04-01T15:45:30;11.20;99.90
60727;DHT22;46577;49.004;12.120;2023-04-01T15:51:11;11.50;99.90
60727;DHT22;46577;49.004;12.120;2023-04-01T15:54:02;11.40;99.90
60727;DHT22;46577;49.004;12.120;2023-04-01T15:56:45;11.50;99.90
60727;DHT22;46577;49.004;12.120;2023-04-01T16:02:13;11.60;99.90
60727;DHT22;46577;49.004;12.120;2023-04-01T16:04:59;11.50;99.90
60727;DHT22;46577;49.004;12.120;2023-04-01T16:07:48;11.50;99.90
60727;DHT22;46577;49.004;12.120;2023-04-01T16:10:51;11.40;99.90
60727;DHT22;46577;49.004;12.120;2023-04-01T16:16:07;11.70;99.90
60727;DHT22;46577;49.004;12.120;2023-04-01T16:18:54;11.60;99.90
60727;DHT22;46577;49.004;12.120;2023-04-01T16:27:19;11.20;99.90
60727;DHT22;46577;49.004;12.120;2023-04-01T16:29:57;11.10;99.90
60727;DHT22;46577;49.004;12.120;2023-04-01T16:51:52;10.70;99.90
60727;DHT22;46577;49.004;12.120;2023-04-01T16:57:14;10.30;99.90
60727;DHT22;46577;49.004;12.120;2023-04-01T17:03:13;10.30;99.90
60727;DHT22;46577;49.004;12.120;2023-04-01T17:05:52;10.30;99.90
60727;DHT22;46577;49.004;12.120;2023-04-01T17:14:34;10.40;99.90
60727;DHT22;46577;49.004;12.120;2023-04-01T17:17:11;10.30;99.90
60727;DHT22;46577;49.004;12.120;2023-04-01T17:19:52;10.30;99.90
60727;DHT22;46577;49.004;12.120;2023-04-01T17:33:27;10.20;99.90
60727;DHT22;46577;49.004;12.120;2023-04-01T17:36:24;10.00;99.90
60727;DHT22;46577;49.004;12.120;2023-04-01T17:42:15;10.00;99.90
60727;DHT22;46577;49.004;12.120;2023-04-01T17:47:24;10.00;99.90
60727;DHT22;46577;49.004;12.120;2023-04-01T17:50:22;10.00;99.90
60727;DHT22;46577;49.004;12.120;2023-04-01T17:56:08;10.00;99.90
60727;DHT22;46577;49.004;12.120;2023-04-01T18:03:56;10.00;99.90
60727;DHT22;46577;49.004;12.120;2023-04-01T18:11:43;10.10;99.90
60727;DHT22;46577;49.004;12.120;2023-04-01T18:20:11;10.10;99.90
60727;DHT22;46577;49.004;12.120;2023-04-01T18:22:45;10.10;99.90
60727;DHT22;46577;49.004;12.120;2023-04-01T18:25:22;10.20;99.90
60727;DHT22;46577;49.004;12.120;2023-04-01T18:31:07;10.20;99.90
60727;DHT22;46577;49.004;12.120;2023-04-01T18:39:15;10.20;99.90
60727;DHT22;46577;49.004;12.120;2023-04-01T18:50:57;10.20;99.90
60727;DHT22;46577;49.004;12.120;2023-04-01T18:53:34;10.40;99.90
60727;DHT22;46577;49.004;12.120;2023-04-01T18:56:22;10.20;99.90
60727;DHT22;46577;49.004;12.120;2023-04-01T18:59:17;10.20;99.90
60727;DHT22;46577;49.004;12.120;2023-04-01T19:04:43;10.10;99.90
60727;DHT22;46577;49.004;12.120;2023-04-01T19:07:42;10.00;99.90
60727;DHT22;46577;49.004;12.120;2023-04-01T19:16:19;9.90;99.90
60727;DHT22;46577;49.004;12.120;2023-04-01T19:21:37;9.80;99.90
60727;DHT22;46577;49.004;12.120;2023-04-01T19:40:46;9.90;99.90
60727;DHT22;46577;49.004;12.120;2023-04-01T19:46:20;9.90;99.90
60727;DHT22;46577;49.004;12.120;2023-04-01T19:57:45;9.80;99.90
60727;DHT22;46577;49.004;12.120;2023-04-01T20:05:46;9.90;99.90
60727;DHT22;46577;49.004;12.120;2023-04-01T20:08:34;9.90;99.90
60727;DHT22;46577;49.004;12.120;2023-04-01T20:11:24;10.00;99.90
60727;DHT22;46577;49.004;12.120;2023-04-01T20:16:48;9.90;99.90
60727;DHT22;46577;49.004;12.120;2023-04-01T20:19:33;9.80;99.90
60727;DHT22;46577;49.004;12.120;2023-04-01T20:22:01;9.80;99.90
60727;DHT22;46577;49.004;12.120;2023-04-01T20:24:42;9.80;99.90
60727;DHT22;46577;49.004;12.120;2023-04-01T20:27:21;9.90;99.90
60727;DHT22;46577;49.004;12.120;2023-04-01T20:32:49;9.90;99.90
60727;DHT22;46577;49.004;12.120;2023-04-01T20:41:20;9.70;99.90
60727;DHT22;46577;49.004;12.120;2023-04-01T20:46:52;9.80;99.90
60727;DHT22;46577;49.004;12.120;2023-04-01T20:52:15;9.80;99.90
60727;DHT22;46577;49.004;12.120;2023-04-01T21:00:51;9.70;99.90
60727;DHT22;46577;49.004;12.120;2023-04-01T21:03:48;9.70;99.90
60727;DHT22;46577;49.004;12.120;2023-04-01T21:06:41;9.70;99.90
60727;DHT22;46577;49.004;12.120;2023-04-01T21:09:26;9.80;99.90
60727;DHT22;46577;49.004;12.120;2023-04-01T21:12:18;9.80;99.90
60727;DHT22;46577;49.004;12.120;2023-04-01T21:14:58;9.70;99.90
60727;DHT22;46577;49.004;12.120;2023-04-01T21:20:53;9.80;99.90
60727;DHT22;46577;49.004;12.120;2023-04-01T21:26:29;9.70;99.90
60727;DHT22;46577;49.004;12.120;2023-04-01T21:31:50;9.70;99.90
60727;DHT22;46577;49.004;12.120;2023-04-01T21:37:47;9.80;99.90
60727;DHT22;46577;49.004;12.120;2023-04-01T21:43:20;9.80;99.90
60727;DHT22;46577;49.004;12.120;2023-04-01T21:49:09;9.60;99.90
60727;DHT22;46577;49.004;12.120;2023-04-01T21:51:54;9.60;99.90
60727;DHT22;46577;49.004;12.120;2023-04-01T22:14:09;9.40;99.90
60727;DHT22;46577;49.004;12.120;2023-04-01T22:16:58;9.50;99.90
60727;DHT22;46577;49.004;12.120;2023-04-01T22:19:50;9.50;99.90
60727;DHT22;46577;49.004;12.120;2023-04-01T22:22:27;9.50;99.90
60727;DHT22;46577;49.004;12.120;2023-04-01T22:30:25;9.60;99.90
60727;DHT22;46577;49.004;12.120;2023-04-01T22:33:07;9.50;99.90
60727;DHT22;46577;49.004;12.120;2023-04-01T22:36:00;9.60;99.90
60727;DHT22;46577;49.004;12.120;2023-04-01T22:39:02;9.60;99.90
60727;DHT22;46577;49.004;12.120;2023-04-01T22:41:29;9.50;99.90
60727;DHT22;46577;49.004;12.120;2023-04-01T22:43:58;9.50;99.90
60727;DHT22;46577;49.004;12.120;2023-04-01T22:46:52;9.50;99.90
60727;DHT22;46577;49.004;12.120;2023-04-01T22:52:45;9.40;99.90
60727;DHT22;46577;49.004;12.120;2023-04-01T22:54:58;9.50;99.90
60727;DHT22;46577;49.004;12.120;2023-04-01T23:00:14;9.70;99.90
60727;DHT22;46577;49.004;12.120;2023-04-01T23:03:13;9.60;99.90
60727;DHT22;46577;49.004;12.120;2023-04-01T23:05:52;9.60;99.90
60727;DHT22;46577;49.004;12.120;2023-04-01T23:11:07;9.70;99.90
60727;DHT22;46577;49.004;12.120;2023-04-01T23:14:02;9.70;99.90
60727;DHT22;46577;49.004;12.120;2023-04-01T23:16:39;9.70;99.90
60727;DHT22;46577;49.004;12.120;2023-04-01T23:19:24;9.80;99.90
60727;DHT22;46577;49.004;12.120;2023-04-01T23:29:35;9.70;99.90
60727;DHT22;46577;49.004;12.120;2023-04-01T23:32:03;9.60;99.90
60727;DHT22;46577;49.004;12.120;2023-04-01T23:34:31;9.70;99.90
60727;DHT22;46577;49.004;12.120;2023-04-01T23:37:13;9.70;99.90
60727;DHT22;46577;49.004;12.120;2023-04-01T23:39:44;9.60;99.90
60727;DHT22;46577;49.004;12.120;2023-04-01T23:42:29;9.50;99.90
60727;DHT22;46577;49.004;12.120;2023-04-01T23:45:03;9.50;99.90
60727;DHT22;46577;49.004;12.120;2023-04-01T23:47:39;9.50;99.90
60727;DHT22;46577;49.004;12.120;2023-04-01T23:50:23;9.50;99.90
60727;DHT22;46577;49.004;12.120;2023-04-01T23:53:07;9.50;99.90
60727;DHT22;46577;49.004;12.120;2023-04-01T23:55:41;9.50;99.90
60727;DHT22;46577;49.004;12.120;2023-04-01T23:58:26;9.40;99.90
